Time;durP1;ratioP1;P1;durP2;ratioP2;P2;SDS_P1;SDS_P2;PMS_P1;PMS_P2;Temp;Humidity;BMP_temperature;BMP_pressure;BME280_temperature;BME280_humidity;BME280_pressure;Samples;Min_cycle;Max_cycle;Signal;HPM_P1;HPM_P2
2023/11/18 00:00:36;;;;;;;2.05;0.80;;;11.00;74.50;;;;;;2524528;53;21868;-76
2023/11/18 00:03:03;;;;;;;1.83;0.88;;;11.00;73.80;;;;;;2527306;54;20955;-78
2023/11/18 00:05:30;;;;;;;1.70;0.75;;;11.00;73.80;;;;;;2524077;54;21586;-74
2023/11/18 00:07:57;;;;;;;1.40;0.70;;;11.00;73.60;;;;;;2524102;54;21674;-75
2023/11/18 00:10:23;;;;;;;2.20;1.00;;;11.00;73.50;;;;;;2292141;54;20938;-74
2023/11/18 00:12:50;;;;;;;6.28;1.00;;;11.00;73.40;;;;;;2290646;54;21014;-74
2023/11/18 00:15:19;;;;;;;2.75;1.27;;;10.90;73.30;;;;;;2523772;53;21542;-74
2023/11/18 00:17:46;;;;;;;2.03;1.00;;;10.90;73.20;;;;;;2528242;54;22010;-74
2023/11/18 00:20:13;;;;;;;2.42;1.00;;;10.90;73.20;;;;;;2291993;54;20983;-77
2023/11/18 00:22:41;;;;;;;2.20;1.10;;;10.90;73.20;;;;;;2520012;53;20999;-77
2023/11/18 00:25:09;;;;;;;2.92;1.40;;;10.80;73.10;;;;;;2523666;53;20918;-74
2023/11/18 00:27:36;;;;;;;2.15;0.90;;;10.80;73.80;;;;;;2526097;54;22209;-74
2023/11/18 00:30:08;;;;;;;1.92;0.90;;;10.80;73.10;;;;;;2540739;54;20974;-74
2023/11/18 00:32:38;;;;;;;2.58;1.10;;;10.80;73.10;;;;;;2540517;54;21022;-75
2023/11/18 00:35:06;;;;;;;2.33;1.02;;;10.70;73.00;;;;;;2542444;54;21555;-76
2023/11/18 00:37:32;;;;;;;2.08;1.00;;;10.70;73.00;;;;;;2543978;54;21967;-77
2023/11/18 00:39:59;;;;;;;2.20;1.00;;;10.70;73.00;;;;;;2542074;54;20959;-77
2023/11/18 00:42:25;;;;;;;2.58;0.98;;;10.60;72.90;;;;;;2542568;54;20967;-75
2023/11/18 00:44:55;;;;;;;2.65;0.90;;;10.60;72.90;;;;;;2543179;54;21030;-76
2023/11/18 00:47:23;;;;;;;3.78;1.12;;;10.60;72.90;;;;;;2299874;54;21027;-75
2023/11/18 00:49:50;;;;;;;3.00;0.90;;;10.60;72.90;;;;;;2539951;54;21507;-76
2023/11/18 00:52:19;;;;;;;2.53;1.10;;;10.50;72.80;;;;;;2540857;54;21012;-75
2023/11/18 00:54:45;;;;;;;2.12;1.05;;;10.50;72.80;;;;;;2293646;54;21777;-74
2023/11/18 00:57:11;;;;;;;2.40;1.20;;;10.50;72.90;;;;;;2308956;55;20931;-75
2023/11/18 00:59:43;;;;;;;2.17;0.95;;;10.40;72.80;;;;;;2297810;54;21119;-76
2023/11/18 01:02:10;;;;;;;3.10;1.52;;;10.40;72.80;;;;;;2523812;54;20927;-74
2023/11/18 01:04:36;;;;;;;8.27;3.58;;;10.40;72.80;;;;;;2307232;54;21496;-74
2023/11/18 01:07:04;;;;;;;8.77;4.10;;;10.40;72.90;;;;;;2547849;54;21030;-74
2023/11/18 01:09:36;;;;;;;14.20;6.75;;;10.40;72.90;;;;;;2550979;54;21022;-74
2023/11/18 01:12:03;;;;;;;14.75;6.40;;;10.30;72.90;;;;;;2308578;55;20967;-77
2023/11/18 01:14:29;;;;;;;12.73;6.05;;;10.30;72.80;;;;;;2551312;54;21026;-74
2023/11/18 01:16:57;;;;;;;9.15;4.30;;;10.30;72.90;;;;;;2310263;54;21039;-75
2023/11/18 01:19:23;;;;;;;6.20;3.12;;;10.30;72.90;;;;;;2549021;54;20949;-75
2023/11/18 01:21:53;;;;;;;4.95;2.22;;;10.30;73.00;;;;;;2305644;54;20955;-74
2023/11/18 01:24:19;;;;;;;4.28;1.90;;;10.20;72.90;;;;;;2312902;54;21013;-75
2023/11/18 01:26:46;;;;;;;2.47;1.10;;;10.20;73.00;;;;;;2312668;54;21003;-74
2023/11/18 01:29:13;;;;;;;2.22;1.10;;;10.20;73.10;;;;;;2545504;53;21323;-74
2023/11/18 01:31:42;;;;;;;2.83;1.30;;;10.20;73.10;;;;;;2548412;54;20947;-77
2023/11/18 01:34:09;;;;;;;2.58;1.10;;;10.20;73.20;;;;;;2547888;54;21780;-74
2023/11/18 01:36:35;;;;;;;3.78;1.30;;;10.20;73.20;;;;;;2543233;54;20945;-75
2023/11/18 01:39:02;;;;;;;2.53;1.20;;;10.20;73.20;;;;;;2309261;54;20963;-77
2023/11/18 01:41:32;;;;;;;2.45;0.98;;;10.10;73.00;;;;;;2308713;55;20927;-76
2023/11/18 01:43:59;;;;;;;4.95;1.40;;;10.10;73.00;;;;;;2305839;55;21286;-74
2023/11/18 01:46:26;;;;;;;2.67;1.20;;;10.10;73.00;;;;;;2302091;54;21920;-75
2023/11/18 01:48:52;;;;;;;3.45;1.10;;;10.10;73.00;;;;;;2303948;54;21031;-76
2023/11/18 01:51:19;;;;;;;2.47;1.02;;;10.10;73.10;;;;;;2544609;54;21932;-77
2023/11/18 01:53:47;;;;;;;2.62;1.12;;;10.10;73.10;;;;;;2306630;55;22160;-74
2023/11/18 01:56:14;;;;;;;3.65;1.50;;;10.00;73.00;;;;;;2549344;53;21272;-75
2023/11/18 01:58:43;;;;;;;3.90;1.52;;;10.10;73.10;;;;;;2550026;54;21342;-75
2023/11/18 02:01:10;;;;;;;2.87;1.30;;;10.00;73.00;;;;;;2551005;54;20967;-75
2023/11/18 02:03:42;;;;;;;3.08;1.23;;;10.00;73.00;;;;;;2553618;54;20975;-75
2023/11/18 02:06:10;;;;;;;2.30;1.10;;;10.00;73.00;;;;;;2312632;54;21010;-75
2023/11/18 02:08:37;;;;;;;3.35;1.20;;;10.00;73.00;;;;;;2551800;54;21387;-74
2023/11/18 02:11:17;;;;;;;2.78;1.10;;;10.00;73.00;;;;;;2310431;54;21436;-74
2023/11/18 02:13:47;;;;;;;3.03;1.10;;;10.00;72.90;;;;;;2544502;54;20959;-74
2023/11/18 02:16:14;;;;;;;2.78;0.90;;;10.00;72.90;;;;;;2553573;54;21468;-74
2023/11/18 02:18:41;;;;;;;2.15;1.20;;;9.90;74.00;;;;;;2312746;54;20950;-75
2023/11/18 02:21:10;;;;;;;1.95;0.90;;;9.90;74.00;;;;;;2310018;54;21056;-76
2023/11/18 02:23:38;;;;;;;2.33;1.20;;;9.90;74.00;;;;;;2550371;54;21291;-75
2023/11/18 02:26:09;;;;;;;2.65;1.08;;;9.90;74.10;;;;;;2309896;55;20951;-77
2023/11/18 02:28:36;;;;;;;2.80;1.20;;;9.90;74.10;;;;;;2546016;54;20996;-74
2023/11/18 02:31:05;;;;;;;2.30;1.20;;;9.90;74.20;;;;;;2307294;55;21484;-75
2023/11/18 02:33:40;;;;;;;2.67;1.25;;;9.90;74.10;;;;;;2545498;54;21002;-77
2023/11/18 02:36:20;;;;;;;2.08;1.00;;;9.90;74.10;;;;;;2545760;54;21042;-75
2023/11/18 02:38:49;;;;;;;2.58;1.20;;;9.80;74.00;;;;;;2299364;55;20967;-74
2023/11/18 02:41:18;;;;;;;2.40;1.17;;;9.80;74.00;;;;;;2539624;54;21003;-77
2023/11/18 02:43:46;;;;;;;3.03;1.23;;;9.80;73.90;;;;;;2301124;54;21885;-75
2023/11/18 02:46:13;;;;;;;2.45;1.15;;;9.80;73.90;;;;;;2539526;54;21428;-74
2023/11/18 02:48:41;;;;;;;2.70;1.10;;;9.70;74.50;;;;;;2539823;54;21087;-75
2023/11/18 02:51:08;;;;;;;3.22;1.60;;;9.70;73.70;;;;;;2513679;54;21452;-75
2023/11/18 02:53:35;;;;;;;3.03;1.60;;;9.70;73.80;;;;;;2544873;54;20942;-73
2023/11/18 02:56:04;;;;;;;3.65;1.40;;;9.70;73.80;;;;;;2541194;54;21062;-77
2023/11/18 02:58:33;;;;;;;2.50;1.30;;;9.70;73.80;;;;;;2305878;54;20995;-77
2023/11/18 03:00:59;;;;;;;4.05;1.35;;;9.70;73.80;;;;;;2542502;54;21006;-75
2023/11/18 03:03:29;;;;;;;4.60;1.40;;;9.60;73.70;;;;;;2539572;53;21462;-74
2023/11/18 03:05:56;;;;;;;3.17;1.30;;;9.60;73.70;;;;;;2545442;54;21460;-75
2023/11/18 03:08:22;;;;;;;2.90;1.33;;;9.60;73.80;;;;;;2548281;54;20971;-75
2023/11/18 03:10:52;;;;;;;3.42;1.20;;;9.60;73.80;;;;;;2307964;55;20982;-77
2023/11/18 03:13:18;;;;;;;3.78;1.60;;;9.60;73.80;;;;;;2547077;54;20951;-75
2023/11/18 03:15:48;;;;;;;2.75;1.30;;;9.50;73.70;;;;;;2308320;55;21015;-75
2023/11/18 03:18:15;;;;;;;3.33;1.33;;;9.50;73.80;;;;;;2546508;54;21007;-74
2023/11/18 03:20:41;;;;;;;2.53;1.23;;;9.50;73.80;;;;;;2547097;54;20995;-74
2023/11/18 03:23:09;;;;;;;2.33;1.10;;;9.50;74.20;;;;;;2310739;54;20961;-74
2023/11/18 03:25:37;;;;;;;2.80;1.37;;;9.50;73.80;;;;;;2304031;54;21527;-74
2023/11/18 03:28:06;;;;;;;2.80;1.25;;;9.50;73.80;;;;;;2550238;54;20975;-73
2023/11/18 03:30:33;;;;;;;4.10;1.20;;;9.40;73.60;;;;;;2549173;54;21015;-74
2023/11/18 03:32:59;;;;;;;3.55;1.35;;;9.40;73.60;;;;;;2310986;55;21084;-74
2023/11/18 03:35:26;;;;;;;2.72;1.33;;;9.40;73.70;;;;;;2533369;53;21014;-75
2023/11/18 03:37:55;;;;;;;2.58;1.25;;;9.40;73.80;;;;;;2297165;54;21030;-75
2023/11/18 03:40:22;;;;;;;2.85;1.50;;;9.40;73.90;;;;;;2308767;55;20915;-74
2023/11/18 03:42:49;;;;;;;2.55;1.27;;;9.40;73.90;;;;;;2547918;54;21039;-74
2023/11/18 03:45:17;;;;;;;2.42;0.95;;;9.40;74.00;;;;;;2307278;54;20955;-73
2023/11/18 03:47:47;;;;;;;2.75;1.12;;;9.30;74.00;;;;;;2305480;54;20951;-75
2023/11/18 03:50:13;;;;;;;3.40;1.52;;;9.30;74.00;;;;;;2546265;54;20971;-74
2023/11/18 03:52:40;;;;;;;4.43;1.75;;;9.30;74.00;;;;;;2545459;54;21312;-76
2023/11/18 03:55:08;;;;;;;3.00;1.48;;;9.30;74.00;;;;;;2545348;54;20976;-74
2023/11/18 03:57:34;;;;;;;3.28;1.52;;;9.30;74.00;;;;;;2305794;55;20959;-74
2023/11/18 04:00:03;;;;;;;4.20;1.58;;;9.30;74.00;;;;;;2544860;54;21297;-74
2023/11/18 04:02:29;;;;;;;3.05;1.50;;;9.30;74.00;;;;;;2543642;54;21018;-78
2023/11/18 04:04:55;;;;;;;2.92;1.27;;;9.30;74.00;;;;;;2542504;53;20945;-74
2023/11/18 04:07:23;;;;;;;2.70;1.20;;;9.30;74.00;;;;;;2306312;54;20955;-74
2023/11/18 04:09:50;;;;;;;2.72;1.00;;;9.40;74.10;;;;;;2309463;54;20994;-75
2023/11/18 04:12:16;;;;;;;3.05;1.35;;;9.30;74.00;;;;;;2307513;54;21551;-74
2023/11/18 04:14:42;;;;;;;3.85;1.27;;;9.20;73.80;;;;;;2311369;55;20947;-75
2023/11/18 04:17:09;;;;;;;4.10;1.30;;;9.20;73.80;;;;;;2547925;54;20955;-74
2023/11/18 04:19:36;;;;;;;2.25;1.00;;;9.20;73.90;;;;;;2548344;54;21259;-73
2023/11/18 04:22:04;;;;;;;2.60;1.17;;;9.20;73.90;;;;;;2546308;53;20956;-76
2023/11/18 04:24:30;;;;;;;2.25;1.10;;;9.20;73.90;;;;;;2545205;54;21066;-76
2023/11/18 04:26:57;;;;;;;2.72;1.08;;;9.20;73.90;;;;;;2308943;54;20916;-74
2023/11/18 04:29:23;;;;;;;2.05;0.98;;;9.20;73.90;;;;;;2549280;54;21797;-75
2023/11/18 04:31:50;;;;;;;3.30;1.65;;;9.20;73.90;;;;;;2550485;54;21019;-73
2023/11/18 04:34:16;;;;;;;2.78;1.40;;;9.20;73.90;;;;;;2550111;54;21003;-74
2023/11/18 04:36:42;;;;;;;2.35;1.10;;;9.20;73.90;;;;;;2548594;54;20943;-77
2023/11/18 04:39:11;;;;;;;1.85;1.00;;;9.10;73.80;;;;;;2308589;55;21416;-74
2023/11/18 04:41:38;;;;;;;2.90;1.20;;;9.10;73.90;;;;;;2548429;54;20998;-76
2023/11/18 04:44:07;;;;;;;3.72;1.12;;;9.10;73.80;;;;;;2309119;55;22118;-74
2023/11/18 04:46:34;;;;;;;3.58;1.23;;;9.10;73.90;;;;;;2549421;54;20979;-76
2023/11/18 04:49:01;;;;;;;2.08;0.90;;;9.10;73.80;;;;;;2543236;53;21838;-77
2023/11/18 04:51:28;;;;;;;2.75;1.25;;;9.10;73.80;;;;;;2542660;53;20973;-74
2023/11/18 04:53:54;;;;;;;2.60;1.00;;;9.10;73.80;;;;;;2546256;53;21013;-75
2023/11/18 04:56:22;;;;;;;3.70;1.00;;;9.10;73.80;;;;;;2545340;54;21039;-74
2023/11/18 04:58:50;;;;;;;2.20;0.93;;;9.10;73.80;;;;;;2307616;54;21400;-74
2023/11/18 05:01:16;;;;;;;2.67;1.10;;;9.00;73.70;;;;;;2547432;54;21023;-73
2023/11/18 05:03:42;;;;;;;1.92;0.90;;;9.00;73.80;;;;;;2308176;54;20955;-74
2023/11/18 05:06:09;;;;;;;2.50;0.80;;;9.00;73.90;;;;;;2547721;54;20975;-74
2023/11/18 05:08:36;;;;;;;2.03;0.85;;;9.00;73.90;;;;;;2306711;55;21409;-74
2023/11/18 05:11:04;;;;;;;2.00;0.98;;;9.00;74.00;;;;;;2305770;55;20971;-74
2023/11/18 05:13:33;;;;;;;2.87;1.10;;;9.00;74.20;;;;;;2303849;54;21648;-75
2023/11/18 05:15:59;;;;;;;2.20;0.90;;;9.00;74.00;;;;;;2307293;54;21538;-75
2023/11/18 05:18:29;;;;;;;2.08;0.98;;;9.00;74.10;;;;;;2545464;54;20999;-74
2023/11/18 05:20:57;;;;;;;1.80;0.80;;;9.00;74.20;;;;;;2306601;54;21620;-75
2023/11/18 05:23:23;;;;;;;1.58;0.70;;;9.00;74.20;;;;;;2543841;54;21533;-76
2023/11/18 05:25:49;;;;;;;1.87;0.82;;;9.00;74.20;;;;;;2537981;53;21015;-73
2023/11/18 05:28:19;;;;;;;3.62;1.00;;;8.90;74.10;;;;;;2306101;54;20933;-74
2023/11/18 05:30:46;;;;;;;2.12;0.90;;;9.00;74.10;;;;;;2540856;54;21615;-76
2023/11/18 05:33:17;;;;;;;1.87;0.88;;;9.00;74.10;;;;;;2537586;53;21024;-74
2023/11/18 05:35:49;;;;;;;2.15;0.93;;;9.00;74.10;;;;;;2513569;54;20995;-74
2023/11/18 05:38:21;;;;;;;1.67;0.88;;;9.00;74.10;;;;;;2305877;55;20979;-74
2023/11/18 05:41:16;;;;;;;2.25;0.75;;;9.00;74.20;;;;;;2545729;54;21966;-74
2023/11/18 05:43:51;;;;;;;1.70;0.82;;;9.00;74.20;;;;;;2306774;54;20943;-74
2023/11/18 05:46:29;;;;;;;2.08;0.80;;;9.00;74.10;;;;;;2513756;54;22020;-74
2023/11/18 05:49:02;;;;;;;1.67;0.80;;;9.00;74.10;;;;;;2543786;54;20943;-73
2023/11/18 05:51:29;;;;;;;1.98;0.80;;;9.00;74.10;;;;;;2307345;55;20967;-74
2023/11/18 05:53:57;;;;;;;2.47;0.90;;;9.00;74.10;;;;;;2546339;54;20948;-75
2023/11/18 05:56:24;;;;;;;3.45;0.80;;;9.00;74.00;;;;;;2308751;55;20967;-74
2023/11/18 05:58:55;;;;;;;2.65;1.02;;;9.00;74.10;;;;;;2548746;54;21048;-76
2023/11/18 06:01:21;;;;;;;2.50;1.00;;;9.00;74.10;;;;;;2549557;54;20982;-77
2023/11/18 06:03:50;;;;;;;2.00;0.80;;;9.00;74.10;;;;;;2551828;54;20932;-74
2023/11/18 06:06:17;;;;;;;2.28;0.90;;;9.00;74.10;;;;;;2551788;54;20990;-75
2023/11/18 06:08:47;;;;;;;1.60;0.70;;;9.00;74.20;;;;;;2313070;54;20974;-74
2023/11/18 06:11:18;;;;;;;2.10;0.90;;;9.00;74.30;;;;;;2548408;54;21424;-74
2023/11/18 06:13:54;;;;;;;1.77;0.90;;;9.00;74.50;;;;;;2551588;54;21452;-77
2023/11/18 06:16:26;;;;;;;2.10;0.75;;;9.00;74.20;;;;;;2521727;54;20987;-76
2023/11/18 06:18:54;;;;;;;2.58;0.82;;;9.00;74.30;;;;;;2553669;54;21082;-76
2023/11/18 06:21:33;;;;;;;1.90;0.80;;;9.00;74.30;;;;;;2554338;54;21851;-75
2023/11/18 06:23:59;;;;;;;2.00;0.80;;;9.00;74.30;;;;;;2312835;55;20959;-76
2023/11/18 06:26:28;;;;;;;1.55;0.70;;;9.00;74.40;;;;;;2551707;54;21090;-74
2023/11/18 06:28:54;;;;;;;2.03;0.80;;;9.00;74.40;;;;;;2550815;54;20967;-75
2023/11/18 06:31:23;;;;;;;2.90;0.80;;;9.00;74.40;;;;;;2546966;53;21285;-77
2023/11/18 06:33:50;;;;;;;1.87;0.70;;;9.00;74.40;;;;;;2546743;54;21019;-75
2023/11/18 06:36:21;;;;;;;1.55;0.68;;;9.00;74.50;;;;;;2550363;54;21879;-75
2023/11/18 06:38:49;;;;;;;3.80;0.98;;;9.00;74.50;;;;;;2546715;54;21296;-77
2023/11/18 06:41:17;;;;;;;2.65;1.10;;;9.00;74.50;;;;;;2546850;54;20990;-73
2023/11/18 06:44:02;;;;;;;1.83;0.70;;;9.00;74.50;;;;;;2547000;54;21299;-77
2023/11/18 06:46:33;;;;;;;2.45;0.73;;;9.00;74.50;;;;;;2304530;54;20920;-78
2023/11/18 06:49:03;;;;;;;2.45;0.80;;;9.10;74.50;;;;;;2545046;54;20970;-74
2023/11/18 06:51:34;;;;;;;3.05;0.80;;;9.10;74.60;;;;;;2545193;54;20935;-74
2023/11/18 06:54:13;;;;;;;1.58;0.68;;;9.10;74.60;;;;;;2545867;54;21378;-76
2023/11/18 06:56:43;;;;;;;2.20;0.77;;;9.10;74.70;;;;;;2544198;54;21034;-77
2023/11/18 06:59:13;;;;;;;1.20;0.60;;;9.10;74.60;;;;;;2548523;54;21942;-74
2023/11/18 07:01:43;;;;;;;2.15;0.88;;;9.10;74.60;;;;;;2549174;54;21022;-74
2023/11/18 07:04:09;;;;;;;3.05;0.90;;;9.10;74.70;;;;;;2545185;53;21028;-74
2023/11/18 07:06:39;;;;;;;2.30;0.98;;;9.10;75.40;;;;;;2310156;55;21856;-75
2023/11/18 07:09:12;;;;;;;2.12;0.77;;;9.10;74.80;;;;;;2312317;54;21042;-74
2023/11/18 07:11:40;;;;;;;1.55;0.70;;;9.20;75.00;;;;;;2317704;54;20961;-75
2023/11/18 07:14:09;;;;;;;4.32;0.80;;;9.20;75.00;;;;;;2300135;54;21488;-77
2023/11/18 07:16:38;;;;;;;4.50;0.85;;;9.20;75.10;;;;;;2547957;54;21649;-77
2023/11/18 07:19:04;;;;;;;3.10;0.90;;;9.20;75.10;;;;;;2545311;54;21026;-74
2023/11/18 07:21:33;;;;;;;2.25;0.80;;;9.20;75.10;;;;;;2547035;54;21042;-75
2023/11/18 07:24:00;;;;;;;1.35;0.60;;;9.30;75.20;;;;;;2306252;54;20958;-74
2023/11/18 07:26:26;;;;;;;3.70;0.77;;;9.30;75.30;;;;;;2544710;54;20967;-75
2023/11/18 07:28:52;;;;;;;1.80;0.80;;;9.30;75.40;;;;;;2305570;54;21648;-73
2023/11/18 07:31:18;;;;;;;1.85;0.80;;;9.30;75.40;;;;;;2540165;54;21033;-75
2023/11/18 07:33:49;;;;;;;2.30;0.80;;;9.30;75.50;;;;;;2540953;54;20959;-74
2023/11/18 07:36:21;;;;;;;3.00;0.80;;;9.40;75.60;;;;;;2303150;54;21714;-74
2023/11/18 07:38:50;;;;;;;2.35;0.90;;;9.40;75.70;;;;;;2535555;54;21100;-76
2023/11/18 07:41:25;;;;;;;2.05;0.95;;;9.40;75.70;;;;;;2525076;53;21071;-75
2023/11/18 07:43:55;;;;;;;1.62;0.70;;;9.50;75.80;;;;;;2503583;54;21483;-76
2023/11/18 07:46:23;;;;;;;3.58;0.82;;;9.40;75.70;;;;;;2281649;55;21515;-75
2023/11/18 07:48:53;;;;;;;1.58;0.68;;;9.60;75.90;;;;;;2535931;53;21398;-74
2023/11/18 07:51:21;;;;;;;2.72;0.70;;;9.60;75.90;;;;;;2537599;53;20990;-76
2023/11/18 07:53:49;;;;;;;2.22;0.80;;;9.60;76.00;;;;;;2536750;54;20983;-74
2023/11/18 07:56:17;;;;;;;4.50;1.12;;;9.70;76.10;;;;;;2535098;54;20971;-74
2023/11/18 07:58:46;;;;;;;2.10;0.90;;;9.70;76.10;;;;;;2533669;54;20990;-75
2023/11/18 08:01:13;;;;;;;2.22;1.02;;;9.80;76.90;;;;;;2528110;53;20901;-75
2023/11/18 08:03:41;;;;;;;2.55;1.12;;;9.80;76.30;;;;;;2296911;54;20954;-75
2023/11/18 08:06:07;;;;;;;3.92;1.80;;;9.80;76.20;;;;;;2528857;54;21007;-74
2023/11/18 08:08:39;;;;;;;3.72;1.60;;;9.90;76.40;;;;;;2538484;54;21022;-75
2023/11/18 08:11:07;;;;;;;2.75;1.33;;;10.00;75.30;;;;;;2538444;54;21803;-74
2023/11/18 08:13:33;;;;;;;4.25;1.70;;;10.00;75.30;;;;;;2301019;55;20970;-75
2023/11/18 08:16:03;;;;;;;3.55;1.48;;;10.00;75.20;;;;;;2300360;55;20923;-76
2023/11/18 08:18:31;;;;;;;3.33;1.45;;;10.10;75.30;;;;;;2541079;54;20983;-74
2023/11/18 08:20:57;;;;;;;5.05;1.92;;;10.10;75.30;;;;;;2541075;54;21433;-74
2023/11/18 08:23:24;;;;;;;3.58;2.03;;;10.20;75.40;;;;;;2539974;54;21060;-76
2023/11/18 08:25:53;;;;;;;3.00;1.75;;;10.20;75.40;;;;;;2536525;53;21064;-78
2023/11/18 08:28:20;;;;;;;3.78;1.60;;;10.30;75.50;;;;;;2528723;53;20940;-75
2023/11/18 08:30:48;;;;;;;3.80;1.95;;;10.30;75.50;;;;;;2538259;54;21776;-75
2023/11/18 08:33:18;;;;;;;3.90;2.20;;;10.40;75.50;;;;;;2537279;54;21801;-76
2023/11/18 08:35:47;;;;;;;4.43;2.20;;;10.30;75.40;;;;;;2541732;54;20983;-74
2023/11/18 08:38:15;;;;;;;3.60;2.28;;;10.40;75.50;;;;;;2539212;54;20947;-77
2023/11/18 08:40:45;;;;;;;6.60;2.70;;;10.50;75.60;;;;;;2301018;54;20989;-75
2023/11/18 08:43:12;;;;;;;3.97;2.10;;;10.50;75.60;;;;;;2528522;54;21015;-76
2023/11/18 08:45:38;;;;;;;4.22;1.70;;;10.60;75.70;;;;;;2522393;54;20939;-74
2023/11/18 08:48:08;;;;;;;4.43;2.08;;;10.70;75.90;;;;;;2288099;54;20962;-77
2023/11/18 08:50:36;;;;;;;5.45;2.40;;;10.70;75.70;;;;;;2292975;55;20939;-74
2023/11/18 08:53:05;;;;;;;6.10;2.58;;;10.80;75.60;;;;;;2530536;54;20955;-75
2023/11/18 08:55:39;;;;;;;5.45;2.20;;;10.80;75.60;;;;;;2529965;54;20955;-76
2023/11/18 08:58:27;;;;;;;;;;;10.90;75.70;;;;;;2295414;55;22300;-75
2023/11/18 09:01:12;;;;;;;4.35;2.00;;;10.90;74.90;;;;;;2286122;54;20141;-74
2023/11/18 09:03:42;;;;;;;5.10;1.85;;;11.00;75.40;;;;;;2281927;54;21002;-75
2023/11/18 09:06:17;;;;;;;5.28;1.70;;;11.00;75.40;;;;;;2519218;54;20947;-76
2023/11/18 09:08:52;;;;;;;3.58;1.95;;;11.00;75.40;;;;;;2289066;54;21304;-75
2023/11/18 09:11:19;;;;;;;4.37;1.67;;;11.00;75.30;;;;;;2525180;54;21941;-74
2023/11/18 09:13:53;;;;;;;3.85;1.80;;;11.10;75.40;;;;;;2540090;54;21465;-74
2023/11/18 09:16:24;;;;;;;4.62;2.28;;;11.10;75.40;;;;;;2546485;54;21016;-74
2023/11/18 09:18:51;;;;;;;4.90;2.67;;;11.20;75.20;;;;;;2545909;54;21263;-75
2023/11/18 09:21:24;;;;;;;6.55;3.00;;;11.20;75.10;;;;;;2304719;55;21051;-74
2023/11/18 09:23:51;;;;;;;4.95;3.05;;;11.20;75.10;;;;;;2549000;54;21153;-74
2023/11/18 09:26:17;;;;;;;6.07;2.95;;;11.30;75.90;;;;;;2554137;54;21547;-73
2023/11/18 09:28:49;;;;;;;4.90;2.40;;;11.30;75.20;;;;;;2551045;54;21039;-73
2023/11/18 09:31:16;;;;;;;3.00;1.70;;;11.30;75.10;;;;;;2538597;54;22025;-74
2023/11/18 09:33:52;;;;;;;4.57;2.35;;;11.30;75.10;;;;;;2530068;54;21479;-75
2023/11/18 09:36:21;;;;;;;4.50;2.75;;;11.30;75.10;;;;;;2518776;54;21840;-75
2023/11/18 09:38:53;;;;;;;4.78;2.95;;;11.40;75.20;;;;;;2508357;53;21006;-74
2023/11/18 09:41:24;;;;;;;4.85;2.47;;;11.40;75.10;;;;;;2504102;54;20970;-74
2023/11/18 09:43:54;;;;;;;3.70;2.40;;;11.50;75.10;;;;;;2257152;54;21620;-75
2023/11/18 09:46:23;;;;;;;4.18;2.35;;;11.50;75.10;;;;;;2241519;54;21014;-74
2023/11/18 09:49:14;;;;;;;4.75;2.75;;;11.50;75.00;;;;;;2248780;55;21043;-74
2023/11/18 09:51:50;;;;;;;3.42;2.03;;;11.50;75.00;;;;;;2469998;54;21457;-75
2023/11/18 09:54:45;;;;;;;4.15;2.28;;;11.50;75.00;;;;;;2469271;54;22144;-73
2023/11/18 09:57:26;;;;;;;3.75;2.42;;;11.60;74.90;;;;;;2434560;54;21019;-75
2023/11/18 10:00:21;;;;;;;3.83;2.35;;;11.60;74.90;;;;;;2441164;54;21770;-74
2023/11/18 10:03:23;;;;;;;3.80;2.22;;;11.70;75.00;;;;;;2477419;54;22070;-74
2023/11/18 10:05:54;;;;;;;4.60;2.42;;;11.70;74.60;;;;;;2498321;54;22181;-74
2023/11/18 10:08:25;;;;;;;3.90;2.37;;;11.70;74.80;;;;;;2495148;54;20999;-74
2023/11/18 10:11:04;;;;;;;3.33;1.98;;;11.70;74.70;;;;;;2268716;54;21118;-74
2023/11/18 10:13:34;;;;;;;4.72;3.22;;;11.80;74.80;;;;;;2522412;54;20963;-75
2023/11/18 10:16:01;;;;;;;4.90;3.00;;;11.80;74.80;;;;;;2522880;54;21455;-76
2023/11/18 10:18:28;;;;;;;3.75;2.10;;;11.80;74.80;;;;;;2521900;54;21377;-74
2023/11/18 10:20:56;;;;;;;4.10;2.35;;;11.80;74.80;;;;;;2292495;54;20967;-75
2023/11/18 10:23:27;;;;;;;4.45;1.90;;;11.80;74.90;;;;;;2521106;53;20951;-74
2023/11/18 10:25:56;;;;;;;4.65;2.00;;;11.80;74.90;;;;;;2524682;54;20967;-73
2023/11/18 10:28:33;;;;;;;3.50;2.10;;;11.80;74.90;;;;;;2289386;55;21030;-76
2023/11/18 10:31:06;;;;;;;3.37;2.12;;;11.90;74.90;;;;;;2279745;55;21765;-74
2023/11/18 10:33:41;;;;;;;3.12;1.90;;;11.90;75.00;;;;;;2509870;54;20978;-75
2023/11/18 10:36:23;;;;;;;6.75;4.12;;;11.90;75.00;;;;;;2279442;55;20958;-73
2023/11/18 10:38:55;;;;;;;4.97;3.00;;;11.90;74.90;;;;;;2276119;54;21095;-73
2023/11/18 10:41:22;;;;;;;4.37;2.30;;;11.90;74.80;;;;;;2501118;54;21007;-74
2023/11/18 10:43:52;;;;;;;4.62;2.60;;;12.00;74.80;;;;;;2504532;54;21704;-73
2023/11/18 10:46:22;;;;;;;3.20;1.83;;;11.90;74.50;;;;;;2509570;54;21770;-73
2023/11/18 10:48:51;;;;;;;3.25;1.98;;;12.00;74.60;;;;;;2507472;54;21743;-73
2023/11/18 10:51:26;;;;;;;3.75;2.00;;;12.00;74.60;;;;;;2507682;54;20999;-75
2023/11/18 10:53:58;;;;;;;3.62;2.00;;;12.00;74.60;;;;;;2272135;55;22342;-73
2023/11/18 10:56:30;;;;;;;2.83;1.35;;;12.00;74.70;;;;;;2276161;55;20970;-74
2023/11/18 10:59:00;;;;;;;3.83;2.00;;;12.00;74.80;;;;;;2526365;54;21006;-74
2023/11/18 11:01:34;;;;;;;3.33;1.87;;;12.00;74.80;;;;;;2284313;55;21002;-75
2023/11/18 11:04:04;;;;;;;3.15;1.65;;;12.00;74.70;;;;;;2253010;55;20943;-75
2023/11/18 11:06:32;;;;;;;4.90;2.17;;;12.00;74.90;;;;;;2274325;55;21039;-73
2023/11/18 11:08:59;;;;;;;4.87;2.12;;;12.10;75.00;;;;;;2511349;54;21751;-74
2023/11/18 11:11:52;;;;;;;3.80;2.40;;;12.10;74.90;;;;;;2280521;55;21010;-77
2023/11/18 11:14:35;;;;;;;2.90;1.77;;;12.10;74.60;;;;;;2282290;55;21019;-73
2023/11/18 11:17:14;;;;;;;3.22;1.92;;;12.10;74.60;;;;;;2291873;55;20985;-75
2023/11/18 11:19:56;;;;;;;4.12;2.33;;;12.10;74.50;;;;;;2279639;54;20935;-74
2023/11/18 11:22:32;;;;;;;3.97;2.05;;;12.10;74.20;;;;;;2292666;55;20959;-74
2023/11/18 11:25:53;;;;;;;3.85;2.08;;;12.10;74.30;;;;;;2526714;54;21769;-74
2023/11/18 11:28:23;;;;;;;4.62;2.37;;;12.10;74.30;;;;;;2531467;53;20973;-73
2023/11/18 11:32:30;;;;;;;6.45;2.87;;;12.10;74.40;;;;;;2304117;54;21295;-73
2023/11/18 11:35:05;;;;;;;3.70;1.92;;;12.10;73.80;;;;;;2312801;55;21014;-75
2023/11/18 11:37:34;;;;;;;3.67;2.00;;;12.10;74.50;;;;;;2314392;54;20964;-74
2023/11/18 11:40:04;;;;;;;6.18;3.05;;;12.10;74.60;;;;;;2550029;54;20955;-74
2023/11/18 11:42:34;;;;;;;4.78;2.65;;;12.10;74.70;;;;;;2313889;55;20915;-74
2023/11/18 11:45:01;;;;;;;6.78;4.05;;;12.10;74.80;;;;;;2314189;55;21424;-73
2023/11/18 11:47:29;;;;;;;6.10;3.67;;;12.10;74.80;;;;;;2551084;54;21053;-74
2023/11/18 11:50:01;;;;;;;5.62;3.25;;;12.10;74.80;;;;;;2550403;54;21027;-75
2023/11/18 11:52:37;;;;;;;5.18;3.40;;;12.20;74.80;;;;;;2548966;54;21034;-73
2023/11/18 11:55:34;;;;;;;5.75;3.95;;;12.10;74.70;;;;;;2554574;54;20947;-74
2023/11/18 11:58:02;;;;;;;5.43;3.50;;;12.10;74.50;;;;;;2313968;54;21608;-74
2023/11/18 12:00:34;;;;;;;6.20;4.30;;;12.10;74.50;;;;;;2554512;54;21450;-74
2023/11/18 12:03:03;;;;;;;7.07;4.32;;;12.10;74.40;;;;;;2314464;55;20979;-74
2023/11/18 12:05:33;;;;;;;5.85;3.67;;;12.10;74.30;;;;;;2314093;54;20925;-74
2023/11/18 12:08:00;;;;;;;9.25;4.15;;;12.10;74.40;;;;;;2554224;54;20987;-75
2023/11/18 12:10:28;;;;;;;7.10;4.35;;;12.00;74.30;;;;;;2554636;54;20963;-75
2023/11/18 12:13:18;;;;;;;6.40;4.18;;;12.10;74.50;;;;;;2554270;54;21039;-75
2023/11/18 12:15:57;;;;;;;8.90;4.80;;;12.10;74.30;;;;;;2549850;53;20909;-73
2023/11/18 12:18:24;;;;;;;9.52;5.50;;;12.10;74.40;;;;;;2555214;54;20955;-75
2023/11/18 12:20:55;;;;;;;8.88;5.97;;;12.10;74.50;;;;;;2555133;54;21773;-73
2023/11/18 12:23:24;;;;;;;8.02;5.10;;;12.10;74.50;;;;;;2550238;54;20977;-75
2023/11/18 12:25:54;;;;;;;7.20;5.05;;;12.10;74.60;;;;;;2314452;54;20955;-74
2023/11/18 12:28:26;;;;;;;8.13;5.10;;;12.10;74.70;;;;;;2312105;54;20961;-73
2023/11/18 12:30:56;;;;;;;6.45;4.57;;;12.10;74.70;;;;;;2554382;54;21094;-75
2023/11/18 12:33:23;;;;;;;7.97;4.68;;;12.10;74.70;;;;;;2554659;54;20955;-74
2023/11/18 12:40:31;;;;;;;6.80;4.50;;;12.10;74.70;;;;;;2554488;54;21351;-73
2023/11/18 12:42:59;;;;;;;5.47;3.47;;;12.10;74.00;;;;;;2314269;55;21055;-75
2023/11/18 12:46:05;;;;;;;5.65;3.50;;;12.10;74.50;;;;;;2314402;55;21027;-73
2023/11/18 12:48:32;;;;;;;7.35;4.20;;;12.10;74.20;;;;;;2314463;55;21015;-74
2023/11/18 12:51:00;;;;;;;5.93;4.10;;;12.10;74.50;;;;;;2314554;55;20974;-74
2023/11/18 12:53:26;;;;;;;7.15;4.15;;;12.10;74.50;;;;;;2314756;55;20943;-74
2023/11/18 12:55:52;;;;;;;6.50;4.40;;;12.10;74.50;;;;;;2314620;54;21046;-74
2023/11/18 12:58:19;;;;;;;5.82;3.90;;;12.10;74.60;;;;;;2314278;55;20955;-75
2023/11/18 13:00:46;;;;;;;7.03;4.50;;;12.20;74.90;;;;;;2314908;55;21022;-73
2023/11/18 13:03:15;;;;;;;6.97;4.28;;;12.10;74.80;;;;;;2523038;54;20971;-73
2023/11/18 13:05:43;;;;;;;7.68;4.55;;;12.10;74.80;;;;;;2314512;55;20951;-74
2023/11/18 13:08:10;;;;;;;6.62;4.00;;;12.10;74.70;;;;;;2313988;55;21990;-74
2023/11/18 13:10:36;;;;;;;7.15;4.20;;;12.10;74.80;;;;;;2553914;54;21122;-73